sensor_id;sensor_type;location;lat;lon;timestamp;pressure;altitude;pressure_sealevel;temperature;humidity
59106;BME280;44891;50.204;8.132;2022-10-16T00:03:54;97935.56;;;13.49;100.00
59106;BME280;44891;50.204;8.132;2022-10-16T00:07:57;97928.72;;;13.48;100.00
59106;BME280;44891;50.204;8.132;2022-10-16T00:12:00;97934.50;;;13.40;100.00
59106;BME280;44891;50.204;8.132;2022-10-16T00:16:05;97943.19;;;13.46;100.00
59106;BME280;44891;50.204;8.132;2022-10-16T00:20:08;97946.38;;;13.38;100.00
59106;BME280;44891;50.204;8.132;2022-10-16T00:24:10;97942.13;;;13.31;100.00
59106;BME280;44891;50.204;8.132;2022-10-16T00:28:14;97943.97;;;13.31;100.00
59106;BME280;44891;50.204;8.132;2022-10-16T00:32:16;97955.06;;;13.23;100.00
59106;BME280;44891;50.204;8.132;2022-10-16T00:36:20;97943.22;;;13.36;100.00
59106;BME280;44891;50.204;8.132;2022-10-16T00:40:22;97945.06;;;13.35;100.00
59106;BME280;44891;50.204;8.132;2022-10-16T00:44:47;97949.78;;;13.38;100.00
59106;BME280;44891;50.204;8.132;2022-10-16T00:48:54;97954.53;;;13.31;100.00
59106;BME280;44891;50.204;8.132;2022-10-16T00:52:58;97969.31;;;13.42;100.00
59106;BME280;44891;50.204;8.132;2022-10-16T00:57:05;97969.31;;;13.42;100.00
59106;BME280;44891;50.204;8.132;2022-10-16T01:01:09;97958.78;;;13.42;100.00
59106;BME280;44891;50.204;8.132;2022-10-16T01:05:11;97964.56;;;13.39;100.00
59106;BME280;44891;50.204;8.132;2022-10-16T01:09:16;97973.28;;;13.45;100.00
59106;BME280;44891;50.204;8.132;2022-10-16T01:13:24;97979.88;;;13.47;100.00
59106;BME280;44891;50.204;8.132;2022-10-16T01:17:34;97970.38;;;13.41;100.00
59106;BME280;44891;50.204;8.132;2022-10-16T01:21:40;97987.25;;;13.45;100.00
59106;BME280;44891;50.204;8.132;2022-10-16T01:25:59;97979.88;;;13.52;100.00
59106;BME280;44891;50.204;8.132;2022-10-16T01:30:10;97983.59;;;13.56;100.00
59106;BME280;44891;50.204;8.132;2022-10-16T01:34:17;97982.50;;;13.52;100.00
59106;BME280;44891;50.204;8.132;2022-10-16T01:38:25;97983.06;;;13.54;100.00
59106;BME280;44891;50.204;8.132;2022-10-16T01:42:34;97967.50;;;13.48;100.00
59106;BME280;44891;50.204;8.132;2022-10-16T01:46:41;97970.91;;;13.53;100.00
59106;BME280;44891;50.204;8.132;2022-10-16T01:50:50;97988.06;;;13.56;100.00
59106;BME280;44891;50.204;8.132;2022-10-16T01:54:55;97997.03;;;13.65;100.00
59106;BME280;44891;50.204;8.132;2022-10-16T01:59:01;97993.88;;;13.68;100.00
59106;BME280;44891;50.204;8.132;2022-10-16T02:03:07;97994.41;;;13.70;100.00
59106;BME280;44891;50.204;8.132;2022-10-16T02:07:12;97992.84;;;13.74;100.00
59106;BME280;44891;50.204;8.132;2022-10-16T02:11:15;97990.72;;;13.76;100.00
59106;BME280;44891;50.204;8.132;2022-10-16T02:15:17;97985.44;;;13.71;100.00
59106;BME280;44891;50.204;8.132;2022-10-16T02:19:21;98000.72;;;13.79;100.00
59106;BME280;44891;50.204;8.132;2022-10-16T02:23:29;97981.75;;;13.87;100.00
59106;BME280;44891;50.204;8.132;2022-10-16T02:27:42;97985.44;;;13.92;100.00
59106;BME280;44891;50.204;8.132;2022-10-16T02:31:49;97996.78;;;13.97;100.00
59106;BME280;44891;50.204;8.132;2022-10-16T02:35:54;98002.34;;;14.01;100.00
59106;BME280;44891;50.204;8.132;2022-10-16T02:39:58;98015.00;;;14.04;100.00
59106;BME280;44891;50.204;8.132;2022-10-16T02:44:00;98027.69;;;14.07;100.00
59106;BME280;44891;50.204;8.132;2022-10-16T02:48:02;98041.41;;;14.04;100.00
59106;BME280;44891;50.204;8.132;2022-10-16T02:52:06;98034.28;;;14.04;100.00
59106;BME280;44891;50.204;8.132;2022-10-16T02:56:08;98015.00;;;13.99;100.00
59106;BME280;44891;50.204;8.132;2022-10-16T03:00:12;98015.53;;;13.96;100.00
59106;BME280;44891;50.204;8.132;2022-10-16T03:04:15;98009.72;;;13.88;100.00
59106;BME280;44891;50.204;8.132;2022-10-16T03:08:18;98013.41;;;13.77;100.00
59106;BME280;44891;50.204;8.132;2022-10-16T03:12:24;98003.91;;;13.86;100.00
59106;BME280;44891;50.204;8.132;2022-10-16T03:16:26;98012.09;;;13.85;100.00
59106;BME280;44891;50.204;8.132;2022-10-16T03:20:28;98007.06;;;13.73;100.00
59106;BME280;44891;50.204;8.132;2022-10-16T03:24:31;98015.00;;;13.63;100.00
59106;BME280;44891;50.204;8.132;2022-10-16T03:28:34;98025.25;;;13.59;100.00
59106;BME280;44891;50.204;8.132;2022-10-16T03:32:36;98015.75;;;13.58;100.00
59106;BME280;44891;50.204;8.132;2022-10-16T03:36:38;98020.78;;;13.50;100.00
59106;BME280;44891;50.204;8.132;2022-10-16T03:40:41;98015.22;;;13.41;100.00
59106;BME280;44891;50.204;8.132;2022-10-16T03:44:43;98023.13;;;13.41;100.00
59106;BME280;44891;50.204;8.132;2022-10-16T03:48:45;98022.34;;;13.41;100.00
59106;BME280;44891;50.204;8.132;2022-10-16T03:52:47;98018.88;;;13.40;100.00
59106;BME280;44891;50.204;8.132;2022-10-16T03:56:51;98017.84;;;13.36;100.00
59106;BME280;44891;50.204;8.132;2022-10-16T04:00:53;98033.16;;;13.34;100.00
59106;BME280;44891;50.204;8.132;2022-10-16T04:04:55;98025.47;;;13.27;100.00
59106;BME280;44891;50.204;8.132;2022-10-16T04:08:57;98033.91;;;13.29;100.00
59106;BME280;44891;50.204;8.132;2022-10-16T04:13:01;98025.47;;;13.27;100.00
59106;BME280;44891;50.204;8.132;2022-10-16T04:17:03;98036.56;;;13.35;100.00
59106;BME280;44891;50.204;8.132;2022-10-16T04:21:06;98039.19;;;13.40;100.00
59106;BME280;44891;50.204;8.132;2022-10-16T04:25:09;98035.78;;;13.44;100.00
59106;BME280;44891;50.204;8.132;2022-10-16T04:29:13;98038.44;;;13.49;100.00
59106;BME280;44891;50.204;8.132;2022-10-16T04:33:15;98044.78;;;13.53;100.00
59106;BME280;44891;50.204;8.132;2022-10-16T04:37:17;98042.41;;;13.57;100.00
59106;BME280;44891;50.204;8.132;2022-10-16T04:41:19;98041.09;;;13.49;100.00
59106;BME280;44891;50.204;8.132;2022-10-16T04:45:23;98047.41;;;13.48;100.00
59106;BME280;44891;50.204;8.132;2022-10-16T04:49:25;98051.66;;;13.54;100.00
59106;BME280;44891;50.204;8.132;2022-10-16T04:53:27;98059.56;;;13.65;100.00
59106;BME280;44891;50.204;8.132;2022-10-16T04:57:29;98064.88;;;13.70;100.00
59106;BME280;44891;50.204;8.132;2022-10-16T05:01:33;98069.63;;;13.73;100.00
59106;BME280;44891;50.204;8.132;2022-10-16T05:05:35;98056.69;;;13.71;100.00
59106;BME280;44891;50.204;8.132;2022-10-16T05:09:38;98070.69;;;13.77;100.00
59106;BME280;44891;50.204;8.132;2022-10-16T05:13:40;98068.84;;;13.77;100.00
59106;BME280;44891;50.204;8.132;2022-10-16T05:17:44;98061.97;;;13.71;100.00
59106;BME280;44891;50.204;8.132;2022-10-16T05:21:46;98072.25;;;13.73;100.00
59106;BME280;44891;50.204;8.132;2022-10-16T05:25:52;98073.31;;;13.72;100.00
59106;BME280;44891;50.204;8.132;2022-10-16T05:29:55;98074.63;;;13.69;100.00
59106;BME280;44891;50.204;8.132;2022-10-16T05:33:59;98078.56;;;13.67;100.00
59106;BME280;44891;50.204;8.132;2022-10-16T05:38:01;98065.66;;;13.70;100.00
59106;BME280;44891;50.204;8.132;2022-10-16T05:42:04;98069.63;;;13.68;100.00
59106;BME280;44891;50.204;8.132;2022-10-16T05:46:06;98077.53;;;13.73;100.00
59106;BME280;44891;50.204;8.132;2022-10-16T05:50:10;98088.63;;;13.75;100.00
59106;BME280;44891;50.204;8.132;2022-10-16T05:54:12;98092.84;;;13.71;100.00
59106;BME280;44891;50.204;8.132;2022-10-16T05:58:14;98098.66;;;13.73;100.00
59106;BME280;44891;50.204;8.132;2022-10-16T06:02:16;98092.88;;;13.76;100.00
59106;BME280;44891;50.204;8.132;2022-10-16T06:06:22;98097.09;;;13.82;100.00
59106;BME280;44891;50.204;8.132;2022-10-16T06:10:24;98110.03;;;13.83;100.00
59106;BME280;44891;50.204;8.132;2022-10-16T06:14:27;98105.81;;;13.87;100.00
59106;BME280;44891;50.204;8.132;2022-10-16T06:18:29;98103.69;;;13.90;100.00
59106;BME280;44891;50.204;8.132;2022-10-16T06:22:33;98107.66;;;13.92;100.00
59106;BME280;44891;50.204;8.132;2022-10-16T06:26:35;98111.38;;;13.96;100.00
59106;BME280;44891;50.204;8.132;2022-10-16T06:30:37;98102.13;;;13.99;100.00
59106;BME280;44891;50.204;8.132;2022-10-16T06:34:39;98091.56;;;13.94;100.00
59106;BME280;44891;50.204;8.132;2022-10-16T06:38:43;98100.28;;;13.99;100.00
59106;BME280;44891;50.204;8.132;2022-10-16T06:42:46;98111.91;;;14.03;100.00
59106;BME280;44891;50.204;8.132;2022-10-16T06:46:48;98122.47;;;14.08;100.00
59106;BME280;44891;50.204;8.132;2022-10-16T06:50:57;98129.34;;;14.14;100.00
59106;BME280;44891;50.204;8.132;2022-10-16T06:55:01;98144.16;;;14.21;100.00
59106;BME280;44891;50.204;8.132;2022-10-16T06:59:04;98148.63;;;14.25;100.00
59106;BME280;44891;50.204;8.132;2022-10-16T07:03:06;98158.94;;;14.27;100.00
59106;BME280;44891;50.204;8.132;2022-10-16T07:07:08;98159.19;;;14.30;100.00
59106;BME280;44891;50.204;8.132;2022-10-16T07:11:13;98175.56;;;14.32;100.00
59106;BME280;44891;50.204;8.132;2022-10-16T07:15:16;98185.63;;;14.35;100.00
59106;BME280;44891;50.204;8.132;2022-10-16T07:19:18;98187.50;;;14.40;100.00
59106;BME280;44891;50.204;8.132;2022-10-16T07:23:20;98210.47;;;14.45;100.00
59106;BME280;44891;50.204;8.132;2022-10-16T07:27:23;98216.84;;;14.49;100.00
59106;BME280;44891;50.204;8.132;2022-10-16T07:31:27;98222.94;;;14.49;100.00
59106;BME280;44891;50.204;8.132;2022-10-16T07:35:29;98231.38;;;14.51;100.00
59106;BME280;44891;50.204;8.132;2022-10-16T07:39:31;98235.88;;;14.56;100.00
59106;BME280;44891;50.204;8.132;2022-10-16T07:43:35;98238.25;;;14.57;100.00
59106;BME280;44891;50.204;8.132;2022-10-16T07:47:37;98243.81;;;14.61;100.00
59106;BME280;44891;50.204;8.132;2022-10-16T07:51:39;98257.84;;;14.66;100.00
59106;BME280;44891;50.204;8.132;2022-10-16T07:55:41;98248.31;;;14.71;100.00
59106;BME280;44891;50.204;8.132;2022-10-16T07:59:45;98258.63;;;14.77;100.00
59106;BME280;44891;50.204;8.132;2022-10-16T08:03:48;98266.31;;;14.89;100.00
59106;BME280;44891;50.204;8.132;2022-10-16T08:07:51;98276.34;;;14.92;100.00
59106;BME280;44891;50.204;8.132;2022-10-16T08:11:53;98272.91;;;14.91;100.00
59106;BME280;44891;50.204;8.132;2022-10-16T08:15:57;98280.84;;;14.91;100.00
59106;BME280;44891;50.204;8.132;2022-10-16T08:19:59;98283.25;;;14.93;100.00
59106;BME280;44891;50.204;8.132;2022-10-16T08:24:01;98286.41;;;15.00;100.00
59106;BME280;44891;50.204;8.132;2022-10-16T08:28:04;98312.06;;;15.00;100.00
59106;BME280;44891;50.204;8.132;2022-10-16T08:32:08;98312.84;;;15.05;100.00
59106;BME280;44891;50.204;8.132;2022-10-16T08:36:11;98320.25;;;15.08;100.00
59106;BME280;44891;50.204;8.132;2022-10-16T08:40:18;98317.34;;;15.20;100.00
59106;BME280;44891;50.204;8.132;2022-10-16T08:44:33;98327.94;;;15.20;100.00
59106;BME280;44891;50.204;8.132;2022-10-16T08:48:44;98331.34;;;15.51;100.00
59106;BME280;44891;50.204;8.132;2022-10-16T08:52:47;98330.28;;;15.67;100.00
59106;BME280;44891;50.204;8.132;2022-10-16T08:56:49;98332.91;;;15.77;100.00
59106;BME280;44891;50.204;8.132;2022-10-16T09:00:54;98332.81;;;16.08;100.00
59106;BME280;44891;50.204;8.132;2022-10-16T09:05:03;98330.09;;;16.23;100.00
59106;BME280;44891;50.204;8.132;2022-10-16T09:09:32;98343.25;;;16.44;100.00
59106;BME280;44891;50.204;8.132;2022-10-16T09:13:46;98355.00;;;16.33;98.17
59106;BME280;44891;50.204;8.132;2022-10-16T09:17:55;98348.91;;;16.32;98.14
59106;BME280;44891;50.204;8.132;2022-10-16T09:22:04;98358.44;;;16.33;98.00
59106;BME280;44891;50.204;8.132;2022-10-16T09:26:13;98366.13;;;16.29;96.36
59106;BME280;44891;50.204;8.132;2022-10-16T09:30:18;98362.97;;;16.22;97.75
59106;BME280;44891;50.204;8.132;2022-10-16T09:34:27;98375.22;;;16.08;98.49
59106;BME280;44891;50.204;8.132;2022-10-16T09:38:33;98372.03;;;16.11;99.24
59106;BME280;44891;50.204;8.132;2022-10-16T09:42:36;98382.63;;;16.11;99.71
59106;BME280;44891;50.204;8.132;2022-10-16T09:46:39;98383.16;;;16.18;99.63
59106;BME280;44891;50.204;8.132;2022-10-16T09:50:41;98382.50;;;16.42;98.16
59106;BME280;44891;50.204;8.132;2022-10-16T09:54:51;98384.94;;;16.33;99.25
59106;BME280;44891;50.204;8.132;2022-10-16T09:58:54;98375.88;;;16.44;98.69
59106;BME280;44891;50.204;8.132;2022-10-16T10:02:57;98375.25;;;16.63;98.40
59106;BME280;44891;50.204;8.132;2022-10-16T10:06:59;98378.34;;;16.85;99.34
59106;BME280;44891;50.204;8.132;2022-10-16T10:11:03;98375.84;;;17.04;96.23
59106;BME280;44891;50.204;8.132;2022-10-16T10:15:07;98375.53;;;17.79;93.78
59106;BME280;44891;50.204;8.132;2022-10-16T10:19:16;98384.94;;;18.43;88.05
59106;BME280;44891;50.204;8.132;2022-10-16T10:23:22;98383.41;;;18.13;88.61
59106;BME280;44891;50.204;8.132;2022-10-16T10:27:32;98380.00;;;17.83;90.15
59106;BME280;44891;50.204;8.132;2022-10-16T10:31:42;98380.09;;;17.68;91.38
59106;BME280;44891;50.204;8.132;2022-10-16T10:35:54;98378.00;;;17.65;90.38
59106;BME280;44891;50.204;8.132;2022-10-16T10:40:08;98373.00;;;17.92;87.30
59106;BME280;44891;50.204;8.132;2022-10-16T10:44:21;98376.88;;;18.48;83.41
59106;BME280;44891;50.204;8.132;2022-10-16T10:48:44;98381.16;;;20.17;74.71
59106;BME280;44891;50.204;8.132;2022-10-16T10:52:58;98378.47;;;19.76;76.97
59106;BME280;44891;50.204;8.132;2022-10-16T10:57:02;98363.19;;;18.97;79.46
59106;BME280;44891;50.204;8.132;2022-10-16T11:01:13;98374.34;;;18.99;80.26
59106;BME280;44891;50.204;8.132;2022-10-16T11:05:35;98366.81;;;19.86;78.86
59106;BME280;44891;50.204;8.132;2022-10-16T11:09:45;98372.13;;;19.39;79.30
59106;BME280;44891;50.204;8.132;2022-10-16T11:13:54;98360.72;;;19.52;79.69
59106;BME280;44891;50.204;8.132;2022-10-16T11:18:03;98347.69;;;25.95;56.50
59106;BME280;44891;50.204;8.132;2022-10-16T11:22:12;98363.19;;;25.53;57.93
59106;BME280;44891;50.204;8.132;2022-10-16T11:26:18;98366.69;;;23.08;63.06
59106;BME280;44891;50.204;8.132;2022-10-16T11:30:22;98365.31;;;22.45;65.49
59106;BME280;44891;50.204;8.132;2022-10-16T11:34:31;98353.50;;;29.65;45.42
59106;BME280;44891;50.204;8.132;2022-10-16T11:38:43;98345.56;;;27.74;47.63
59106;BME280;44891;50.204;8.132;2022-10-16T11:42:48;98371.38;;;23.46;59.04
59106;BME280;44891;50.204;8.132;2022-10-16T11:47:01;98369.44;;;21.71;65.51
59106;BME280;44891;50.204;8.132;2022-10-16T11:51:11;98373.84;;;21.00;69.75
59106;BME280;44891;50.204;8.132;2022-10-16T11:55:17;98378.56;;;19.71;75.10
59106;BME280;44891;50.204;8.132;2022-10-16T11:59:26;98377.34;;;19.12;80.16
59106;BME280;44891;50.204;8.132;2022-10-16T12:03:33;98381.72;;;18.65;83.24
59106;BME280;44891;50.204;8.132;2022-10-16T12:07:43;98373.34;;;18.53;84.95
59106;BME280;44891;50.204;8.132;2022-10-16T12:11:48;98369.56;;;18.16;87.43
59106;BME280;44891;50.204;8.132;2022-10-16T12:15:51;98369.81;;;18.14;88.93
59106;BME280;44891;50.204;8.132;2022-10-16T12:20:01;98379.44;;;18.10;89.17
59106;BME280;44891;50.204;8.132;2022-10-16T12:24:05;98379.88;;;18.41;87.49
59106;BME280;44891;50.204;8.132;2022-10-16T12:28:20;98378.28;;;18.40;86.37
59106;BME280;44891;50.204;8.132;2022-10-16T12:32:27;98381.31;;;18.10;88.46
59106;BME280;44891;50.204;8.132;2022-10-16T12:36:32;98380.75;;;18.37;87.99
59106;BME280;44891;50.204;8.132;2022-10-16T12:40:37;98388.13;;;18.64;84.80
59106;BME280;44891;50.204;8.132;2022-10-16T12:44:39;98393.94;;;19.74;80.61
59106;BME280;44891;50.204;8.132;2022-10-16T12:48:43;98392.66;;;20.95;71.64
59106;BME280;44891;50.204;8.132;2022-10-16T12:52:48;98390.50;;;20.83;72.76
59106;BME280;44891;50.204;8.132;2022-10-16T12:57:02;98392.00;;;25.97;56.45
59106;BME280;44891;50.204;8.132;2022-10-16T13:01:12;98396.59;;;29.35;46.08
59106;BME280;44891;50.204;8.132;2022-10-16T13:05:26;98412.47;;;29.37;44.18
59106;BME280;44891;50.204;8.132;2022-10-16T13:09:40;98397.53;;;27.58;47.91
59106;BME280;44891;50.204;8.132;2022-10-16T13:13:58;98389.09;;;26.39;52.49
59106;BME280;44891;50.204;8.132;2022-10-16T13:18:12;98393.97;;;32.91;39.61
59106;BME280;44891;50.204;8.132;2022-10-16T13:22:22;98397.63;;;32.54;36.58
59106;BME280;44891;50.204;8.132;2022-10-16T13:26:33;98386.50;;;29.32;42.47
59106;BME280;44891;50.204;8.132;2022-10-16T13:30:42;98394.19;;;25.05;52.29
59106;BME280;44891;50.204;8.132;2022-10-16T13:34:47;98379.78;;;26.24;51.32
59106;BME280;44891;50.204;8.132;2022-10-16T13:38:59;98373.84;;;25.82;53.77
59106;BME280;44891;50.204;8.132;2022-10-16T13:43:02;98363.03;;;24.83;55.04
59106;BME280;44891;50.204;8.132;2022-10-16T13:47:10;98381.66;;;23.00;61.75
59106;BME280;44891;50.204;8.132;2022-10-16T13:51:17;98378.34;;;21.58;67.37
59106;BME280;44891;50.204;8.132;2022-10-16T13:55:20;98368.97;;;20.66;72.15
59106;BME280;44891;50.204;8.132;2022-10-16T13:59:24;98384.72;;;20.13;75.37
59106;BME280;44891;50.204;8.132;2022-10-16T14:03:29;98391.63;;;20.14;76.10
59106;BME280;44891;50.204;8.132;2022-10-16T14:07:32;98392.13;;;19.88;77.53
59106;BME280;44891;50.204;8.132;2022-10-16T14:11:43;98391.22;;;19.93;77.56
59106;BME280;44891;50.204;8.132;2022-10-16T14:15:48;98393.50;;;20.13;77.03
59106;BME280;44891;50.204;8.132;2022-10-16T14:19:54;98390.56;;;20.01;77.11
59106;BME280;44891;50.204;8.132;2022-10-16T14:23:57;98385.97;;;20.70;75.00
59106;BME280;44891;50.204;8.132;2022-10-16T14:28:02;98373.16;;;20.31;75.25
59106;BME280;44891;50.204;8.132;2022-10-16T14:32:05;98390.47;;;19.41;81.12
59106;BME280;44891;50.204;8.132;2022-10-16T14:36:13;98392.03;;;18.90;83.98
59106;BME280;44891;50.204;8.132;2022-10-16T14:40:17;98380.88;;;19.07;84.48
59106;BME280;44891;50.204;8.132;2022-10-16T14:44:25;98378.16;;;19.64;82.22
59106;BME280;44891;50.204;8.132;2022-10-16T14:48:29;98385.28;;;19.17;82.63
59106;BME280;44891;50.204;8.132;2022-10-16T14:52:32;98386.44;;;19.11;83.44
59106;BME280;44891;50.204;8.132;2022-10-16T14:56:43;98394.63;;;18.77;85.92
59106;BME280;44891;50.204;8.132;2022-10-16T15:00:47;98397.50;;;18.37;89.20
59106;BME280;44891;50.204;8.132;2022-10-16T15:04:49;98394.78;;;18.18;90.75
59106;BME280;44891;50.204;8.132;2022-10-16T15:08:53;98406.06;;;18.05;92.56
59106;BME280;44891;50.204;8.132;2022-10-16T15:12:55;98400.25;;;18.03;93.10
59106;BME280;44891;50.204;8.132;2022-10-16T15:16:57;98410.09;;;18.03;94.23
59106;BME280;44891;50.204;8.132;2022-10-16T15:20:59;98419.13;;;18.02;94.42
59106;BME280;44891;50.204;8.132;2022-10-16T15:25:10;98420.50;;;17.99;94.84
59106;BME280;44891;50.204;8.132;2022-10-16T15:29:21;98431.38;;;18.03;94.90
59106;BME280;44891;50.204;8.132;2022-10-16T15:33:25;98422.53;;;18.07;93.45
59106;BME280;44891;50.204;8.132;2022-10-16T15:37:33;98427.16;;;17.97;94.55
59106;BME280;44891;50.204;8.132;2022-10-16T15:41:36;98423.53;;;17.87;95.59
59106;BME280;44891;50.204;8.132;2022-10-16T15:45:39;98422.03;;;17.76;96.05
59106;BME280;44891;50.204;8.132;2022-10-16T15:49:41;98429.50;;;17.69;96.96
59106;BME280;44891;50.204;8.132;2022-10-16T15:53:43;98420.59;;;17.55;99.06
59106;BME280;44891;50.204;8.132;2022-10-16T15:57:48;98420.97;;;17.43;100.00
59106;BME280;44891;50.204;8.132;2022-10-16T16:01:51;98420.22;;;17.37;100.00
59106;BME280;44891;50.204;8.132;2022-10-16T16:05:53;98416.00;;;17.31;100.00
59106;BME280;44891;50.204;8.132;2022-10-16T16:09:55;98422.59;;;17.34;100.00
59106;BME280;44891;50.204;8.132;2022-10-16T16:13:58;98411.22;;;17.28;100.00
59106;BME280;44891;50.204;8.132;2022-10-16T16:18:00;98415.78;;;17.23;100.00
59106;BME280;44891;50.204;8.132;2022-10-16T16:22:06;98405.75;;;17.15;100.00
59106;BME280;44891;50.204;8.132;2022-10-16T16:26:11;98414.00;;;17.13;100.00
59106;BME280;44891;50.204;8.132;2022-10-16T16:30:15;98411.06;;;17.15;100.00
59106;BME280;44891;50.204;8.132;2022-10-16T16:34:20;98406.66;;;17.00;100.00
59106;BME280;44891;50.204;8.132;2022-10-16T16:38:22;98418.88;;;16.96;100.00
59106;BME280;44891;50.204;8.132;2022-10-16T16:42:24;98420.22;;;16.93;100.00
59106;BME280;44891;50.204;8.132;2022-10-16T16:46:28;98423.16;;;16.92;100.00
59106;BME280;44891;50.204;8.132;2022-10-16T16:50:35;98424.81;;;16.77;100.00
59106;BME280;44891;50.204;8.132;2022-10-16T16:54:37;98425.13;;;16.71;100.00
59106;BME280;44891;50.204;8.132;2022-10-16T16:58:39;98434.38;;;16.68;100.00
59106;BME280;44891;50.204;8.132;2022-10-16T17:02:43;98441.03;;;16.61;100.00
59106;BME280;44891;50.204;8.132;2022-10-16T17:06:45;98434.97;;;16.50;100.00
59106;BME280;44891;50.204;8.132;2022-10-16T17:10:48;98455.63;;;16.58;100.00
59106;BME280;44891;50.204;8.132;2022-10-16T17:14:53;98465.19;;;16.54;100.00
59106;BME280;44891;50.204;8.132;2022-10-16T17:18:58;98468.09;;;16.57;100.00
59106;BME280;44891;50.204;8.132;2022-10-16T17:23:01;98468.91;;;16.58;100.00
59106;BME280;44891;50.204;8.132;2022-10-16T17:27:03;98458.06;;;16.39;100.00
59106;BME280;44891;50.204;8.132;2022-10-16T17:31:09;98450.41;;;16.27;100.00
59106;BME280;44891;50.204;8.132;2022-10-16T17:35:13;98459.38;;;16.37;100.00
59106;BME280;44891;50.204;8.132;2022-10-16T17:39:17;98465.53;;;16.27;100.00
59106;BME280;44891;50.204;8.132;2022-10-16T17:43:19;98467.66;;;16.25;100.00
59106;BME280;44891;50.204;8.132;2022-10-16T17:47:21;98470.59;;;16.13;100.00
59106;BME280;44891;50.204;8.132;2022-10-16T17:51:27;98471.13;;;16.05;100.00
59106;BME280;44891;50.204;8.132;2022-10-16T17:55:29;98477.22;;;16.00;100.00
59106;BME280;44891;50.204;8.132;2022-10-16T17:59:31;98476.94;;;15.97;100.00
59106;BME280;44891;50.204;8.132;2022-10-16T18:03:34;98472.72;;;15.81;100.00
59106;BME280;44891;50.204;8.132;2022-10-16T18:07:37;98477.50;;;15.73;100.00
59106;BME280;44891;50.204;8.132;2022-10-16T18:11:39;98485.44;;;15.68;100.00
59106;BME280;44891;50.204;8.132;2022-10-16T18:15:42;98490.16;;;15.61;100.00
59106;BME280;44891;50.204;8.132;2022-10-16T18:19:44;98492.03;;;15.56;100.00
59106;BME280;44891;50.204;8.132;2022-10-16T18:23:48;98503.38;;;15.51;100.00
59106;BME280;44891;50.204;8.132;2022-10-16T18:27:50;98494.91;;;15.44;100.00
59106;BME280;44891;50.204;8.132;2022-10-16T18:31:52;98495.16;;;15.37;100.00
59106;BME280;44891;50.204;8.132;2022-10-16T18:35:55;98504.69;;;15.28;100.00
59106;BME280;44891;50.204;8.132;2022-10-16T18:40:03;98477.63;;;15.01;100.00
59106;BME280;44891;50.204;8.132;2022-10-16T18:44:06;98497.47;;;15.03;100.00
59106;BME280;44891;50.204;8.132;2022-10-16T18:48:10;98497.47;;;15.03;100.00
59106;BME280;44891;50.204;8.132;2022-10-16T18:52:12;98489.03;;;15.06;100.00
59106;BME280;44891;50.204;8.132;2022-10-16T18:56:17;98498.81;;;15.06;100.00
59106;BME280;44891;50.204;8.132;2022-10-16T19:00:19;98499.56;;;15.01;100.00
59106;BME280;44891;50.204;8.132;2022-10-16T19:04:21;98502.28;;;15.21;100.00
59106;BME280;44891;50.204;8.132;2022-10-16T19:08:24;98506.00;;;15.20;100.00
59106;BME280;44891;50.204;8.132;2022-10-16T19:12:27;98509.19;;;15.28;100.00
59106;BME280;44891;50.204;8.132;2022-10-16T19:16:32;98516.06;;;15.29;100.00
59106;BME280;44891;50.204;8.132;2022-10-16T19:20:34;98515.31;;;15.48;100.00
59106;BME280;44891;50.204;8.132;2022-10-16T19:24:36;98523.06;;;15.65;100.00
59106;BME280;44891;50.204;8.132;2022-10-16T19:28:40;98521.19;;;15.71;100.00
59106;BME280;44891;50.204;8.132;2022-10-16T19:32:43;98530.66;;;15.57;100.00
59106;BME280;44891;50.204;8.132;2022-10-16T19:36:45;98537.59;;;15.63;100.00
59106;BME280;44891;50.204;8.132;2022-10-16T19:40:49;98538.94;;;15.81;100.00
59106;BME280;44891;50.204;8.132;2022-10-16T19:44:52;98535.50;;;15.80;100.00
59106;BME280;44891;50.204;8.132;2022-10-16T19:48:56;98524.09;;;15.74;100.00
59106;BME280;44891;50.204;8.132;2022-10-16T19:52:58;98538.13;;;15.75;100.00
59106;BME280;44891;50.204;8.132;2022-10-16T19:57:00;98538.13;;;15.75;100.00
59106;BME280;44891;50.204;8.132;2022-10-16T20:01:04;98542.13;;;15.72;100.00
59106;BME280;44891;50.204;8.132;2022-10-16T20:05:07;98543.72;;;15.73;100.00
59106;BME280;44891;50.204;8.132;2022-10-16T20:09:09;98547.41;;;15.72;100.00
59106;BME280;44891;50.204;8.132;2022-10-16T20:13:11;98545.28;;;15.69;100.00
59106;BME280;44891;50.204;8.132;2022-10-16T20:17:15;98541.59;;;15.65;100.00
59106;BME280;44891;50.204;8.132;2022-10-16T20:21:18;98545.25;;;15.59;100.00
59106;BME280;44891;50.204;8.132;2022-10-16T20:25:20;98551.84;;;15.57;100.00
59106;BME280;44891;50.204;8.132;2022-10-16T20:29:22;98547.59;;;15.50;100.00
59106;BME280;44891;50.204;8.132;2022-10-16T20:33:26;98554.47;;;15.46;100.00
59106;BME280;44891;50.204;8.132;2022-10-16T20:37:28;98551.03;;;15.46;100.00
59106;BME280;44891;50.204;8.132;2022-10-16T20:41:30;98556.56;;;15.44;100.00
59106;BME280;44891;50.204;8.132;2022-10-16T20:45:33;98549.66;;;15.38;100.00
59106;BME280;44891;50.204;8.132;2022-10-16T20:49:36;98560.25;;;15.38;100.00
59106;BME280;44891;50.204;8.132;2022-10-16T20:53:38;98551.03;;;15.41;100.00
59106;BME280;44891;50.204;8.132;2022-10-16T20:57:40;98554.19;;;15.43;100.00
59106;BME280;44891;50.204;8.132;2022-10-16T21:01:43;98555.81;;;15.49;100.00
59106;BME280;44891;50.204;8.132;2022-10-16T21:05:46;98547.09;;;15.54;100.00
59106;BME280;44891;50.204;8.132;2022-10-16T21:09:48;98551.03;;;15.56;100.00
59106;BME280;44891;50.204;8.132;2022-10-16T21:13:52;98542.63;;;15.64;100.00
59106;BME280;44891;50.204;8.132;2022-10-16T21:17:54;98545.28;;;15.69;100.00
59106;BME280;44891;50.204;8.132;2022-10-16T21:21:58;98540.53;;;15.71;100.00
59106;BME280;44891;50.204;8.132;2022-10-16T21:26:00;98546.63;;;15.72;100.00